Time;durP1;ratioP1;P1;durP2;ratioP2;P2;SDS_P1;SDS_P2;PMS_P1;PMS_P2;Temp;Humidity;BMP_temperature;BMP_pressure;BME280_temperature;BME280_humidity;BME280_pressure;Samples;Min_cycle;Max_cycle;Signal;HPM_P1;HPM_P2
2023/12/07 00:00:24;;;;;;;9.35;6.47;;;2.50;99.90;;;;;;5050311;28;20607;-59
2023/12/07 00:02:52;;;;;;;8.07;6.45;;;2.50;99.90;;;;;;5050600;28;20210;-60
2023/12/07 00:05:22;;;;;;;9.57;6.75;;;2.40;99.90;;;;;;5050675;28;20283;-61
2023/12/07 00:07:50;;;;;;;8.23;6.47;;;2.40;99.90;;;;;;5051082;28;20228;-59
2023/12/07 00:10:18;;;;;;;9.02;5.97;;;2.40;99.90;;;;;;5050911;28;20202;-60
2023/12/07 00:12:46;;;;;;;7.25;5.80;;;2.40;99.90;;;;;;5050795;28;20210;-59
2023/12/07 00:15:14;;;;;;;7.30;6.25;;;2.30;99.90;;;;;;5050691;28;20226;-59
2023/12/07 00:17:42;;;;;;;9.75;6.47;;;2.30;99.90;;;;;;5050930;28;20213;-61
2023/12/07 00:20:11;;;;;;;10.63;6.70;;;2.30;99.90;;;;;;5050530;28;20707;-59
2023/12/07 00:22:41;;;;;;;8.93;6.63;;;2.20;99.90;;;;;;5050697;28;20206;-59
2023/12/07 00:25:09;;;;;;;10.73;7.75;;;2.20;99.90;;;;;;5050393;28;20234;-59
2023/12/07 00:27:37;;;;;;;13.85;6.95;;;2.20;99.90;;;;;;5051179;28;20206;-59
2023/12/07 00:30:06;;;;;;;13.82;7.07;;;2.10;99.90;;;;;;5047629;28;20320;-61
2023/12/07 00:32:34;;;;;;;7.60;5.95;;;2.10;99.90;;;;;;5051990;28;20233;-59
2023/12/07 00:35:01;;;;;;;10.05;7.18;;;2.10;99.90;;;;;;5054155;28;20225;-59
2023/12/07 00:37:29;;;;;;;9.77;6.85;;;2.10;99.90;;;;;;5053397;28;20206;-60
2023/12/07 00:40:00;;;;;;;9.88;7.25;;;2.00;99.90;;;;;;5053341;28;20580;-61
2023/12/07 00:42:28;;;;;;;9.00;7.18;;;2.00;99.90;;;;;;5053883;28;20289;-61
2023/12/07 00:44:56;;;;;;;10.30;7.38;;;2.00;99.90;;;;;;5054046;28;20312;-60
2023/12/07 00:47:24;;;;;;;10.82;6.90;;;2.00;99.90;;;;;;5053901;28;20668;-60
2023/12/07 00:49:52;;;;;;;9.98;7.38;;;2.00;99.90;;;;;;5054116;28;20268;-59
2023/12/07 00:52:20;;;;;;;10.35;7.90;;;2.00;99.90;;;;;;5053836;28;20313;-59
2023/12/07 00:54:48;;;;;;;13.82;7.88;;;1.90;99.90;;;;;;5053984;28;20222;-59
2023/12/07 00:57:18;;;;;;;11.80;7.97;;;1.90;99.90;;;;;;5053865;28;20256;-60
2023/12/07 00:59:46;;;;;;;13.20;8.02;;;1.90;99.90;;;;;;5054045;28;20210;-59
2023/12/07 01:02:13;;;;;;;12.43;8.25;;;1.90;99.90;;;;;;5053930;28;20271;-59
2023/12/07 01:04:41;;;;;;;11.52;7.75;;;1.90;99.90;;;;;;5053579;28;20272;-61
2023/12/07 01:07:09;;;;;;;12.07;8.23;;;1.90;99.90;;;;;;5053993;28;20214;-61
2023/12/07 01:09:37;;;;;;;10.32;7.72;;;1.90;99.90;;;;;;5052387;28;20864;-61
2023/12/07 01:12:05;;;;;;;11.02;8.25;;;1.80;99.90;;;;;;5052895;28;20230;-60
2023/12/07 01:14:35;;;;;;;12.13;7.82;;;1.80;99.90;;;;;;5053493;28;20218;-60
2023/12/07 01:17:04;;;;;;;11.02;7.60;;;1.80;99.90;;;;;;5053750;28;20232;-59
2023/12/07 01:19:32;;;;;;;10.38;7.72;;;1.80;99.90;;;;;;5053498;28;20210;-59
2023/12/07 01:22:00;;;;;;;13.02;8.60;;;1.70;99.90;;;;;;5053315;28;20228;-59
2023/12/07 01:24:29;;;;;;;11.00;7.70;;;1.70;99.90;;;;;;5071005;22;20234;-71
2023/12/07 01:26:57;;;;;;;12.00;7.93;;;1.70;99.90;;;;;;5033075;28;20230;-71
2023/12/07 01:29:24;;;;;;;12.85;8.25;;;1.70;99.90;;;;;;5033335;28;20303;-71
2023/12/07 01:31:54;;;;;;;12.25;7.68;;;1.70;99.90;;;;;;5033491;28;20252;-71
2023/12/07 01:34:21;;;;;;;13.98;8.35;;;1.60;99.90;;;;;;5032945;28;20664;-71
2023/12/07 01:36:49;;;;;;;14.07;8.38;;;1.60;99.90;;;;;;5033133;28;20226;-72
2023/12/07 01:39:17;;;;;;;11.60;8.52;;;1.60;99.90;;;;;;5033093;28;20671;-72
2023/12/07 01:41:45;;;;;;;14.65;9.07;;;1.60;99.90;;;;;;5025820;28;20262;-71
2023/12/07 01:44:13;;;;;;;11.93;8.18;;;1.60;99.90;;;;;;5033280;28;20624;-71
2023/12/07 01:46:41;;;;;;;12.65;8.73;;;1.60;99.90;;;;;;5032673;28;20304;-71
2023/12/07 01:49:10;;;;;;;12.70;8.90;;;1.60;99.90;;;;;;5032890;28;20268;-71
2023/12/07 01:51:38;;;;;;;13.20;8.27;;;1.50;99.90;;;;;;5033058;28;20288;-70
2023/12/07 01:54:06;;;;;;;11.60;8.00;;;1.50;99.90;;;;;;5032753;28;20239;-72
2023/12/07 01:56:34;;;;;;;13.50;8.60;;;1.50;99.90;;;;;;5032730;28;20266;-72
2023/12/07 01:59:02;;;;;;;12.40;8.95;;;1.50;99.90;;;;;;5032996;28;20672;-71
2023/12/07 02:01:29;;;;;;;13.60;7.68;;;1.50;99.90;;;;;;5032510;28;20254;-71
2023/12/07 02:03:57;;;;;;;15.90;8.65;;;1.40;99.90;;;;;;5032830;28;20210;-71
2023/12/07 02:06:28;;;;;;;16.60;8.55;;;1.40;99.90;;;;;;5032645;28;20241;-71
2023/12/07 02:08:56;;;;;;;15.13;8.55;;;1.30;99.90;;;;;;5032875;28;20210;-72
2023/12/07 02:11:24;;;;;;;14.13;8.75;;;1.30;99.90;;;;;;5032646;28;20708;-71
2023/12/07 02:13:55;;;;;;;12.15;8.57;;;1.20;99.90;;;;;;5032425;28;20238;-71
2023/12/07 02:16:27;;;;;;;16.15;8.60;;;1.30;99.90;;;;;;5032124;28;20230;-72
2023/12/07 02:18:58;;;;;;;12.45;8.07;;;1.20;99.90;;;;;;5032686;28;20238;-71
2023/12/07 02:21:30;;;;;;;14.85;9.02;;;1.20;99.90;;;;;;5032384;28;20230;-72
2023/12/07 02:23:58;;;;;;;13.70;8.40;;;1.20;99.90;;;;;;5034111;28;20625;-71
2023/12/07 02:26:31;;;;;;;15.77;8.23;;;1.20;99.90;;;;;;5033666;28;20226;-71
2023/12/07 02:28:59;;;;;;;12.80;8.10;;;1.20;99.90;;;;;;5032611;28;20242;-71
2023/12/07 02:31:26;;;;;;;13.10;7.70;;;1.20;99.90;;;;;;5040281;28;20654;-72
2023/12/07 02:33:54;;;;;;;11.57;7.43;;;1.20;99.90;;;;;;5032210;28;20210;-72
2023/12/07 02:36:23;;;;;;;11.27;8.07;;;1.10;99.90;;;;;;5029247;28;20219;-74
2023/12/07 02:38:52;;;;;;;10.85;7.13;;;1.10;99.90;;;;;;5029695;28;20297;-71
2023/12/07 02:41:19;;;;;;;11.10;7.03;;;1.20;99.90;;;;;;5032045;28;20218;-71
2023/12/07 02:43:49;;;;;;;9.73;7.50;;;1.10;99.90;;;;;;5023859;28;20231;-71
2023/12/07 02:46:16;;;;;;;11.15;7.35;;;1.10;99.90;;;;;;5031832;28;20198;-71
2023/12/07 02:48:44;;;;;;;9.48;7.35;;;1.10;99.90;;;;;;5031944;28;20218;-71
2023/12/07 02:51:12;;;;;;;12.38;8.10;;;1.10;99.90;;;;;;5031218;28;20203;-71
2023/12/07 02:53:40;;;;;;;12.27;8.25;;;1.10;99.90;;;;;;5030470;28;20261;-71
2023/12/07 02:56:08;;;;;;;11.30;7.82;;;1.00;99.90;;;;;;5031659;28;20250;-71
2023/12/07 02:58:36;;;;;;;15.63;8.52;;;1.00;99.90;;;;;;5031846;28;20237;-71
2023/12/07 03:01:06;;;;;;;13.88;7.85;;;1.00;99.90;;;;;;5031662;28;20202;-71
2023/12/07 03:03:34;;;;;;;16.17;8.85;;;1.00;99.90;;;;;;5031226;28;20209;-71
2023/12/07 03:06:02;;;;;;;13.95;8.55;;;1.00;99.90;;;;;;5031264;28;20652;-71
2023/12/07 03:08:30;;;;;;;14.43;8.68;;;1.00;99.90;;;;;;5031584;28;20290;-72
2023/12/07 03:10:57;;;;;;;16.92;8.27;;;1.00;99.90;;;;;;5031507;28;20297;-72
2023/12/07 03:13:25;;;;;;;12.48;8.50;;;0.90;99.90;;;;;;5031638;28;20268;-72
2023/12/07 03:15:53;;;;;;;13.23;8.02;;;0.90;99.90;;;;;;5031715;28;20589;-71
2023/12/07 03:18:22;;;;;;;11.73;7.85;;;0.90;99.90;;;;;;5031454;28;20324;-71
2023/12/07 03:20:50;;;;;;;13.98;8.18;;;0.90;99.90;;;;;;5024805;28;20246;-71
2023/12/07 03:23:18;;;;;;;10.30;7.45;;;0.80;99.90;;;;;;5028546;28;20223;-71
2023/12/07 03:25:46;;;;;;;10.52;7.40;;;0.80;99.90;;;;;;5030905;28;20245;-71
2023/12/07 03:28:14;;;;;;;13.55;7.97;;;0.80;99.90;;;;;;5031051;28;20229;-72
2023/12/07 03:30:42;;;;;;;13.88;7.88;;;0.80;99.90;;;;;;5030885;28;20603;-71
2023/12/07 03:33:10;;;;;;;15.23;8.70;;;0.80;99.90;;;;;;5031328;28;20206;-72
2023/12/07 03:35:40;;;;;;;11.30;7.35;;;0.80;99.90;;;;;;5030859;28;20206;-71
2023/12/07 03:38:08;;;;;;;11.82;7.50;;;0.80;99.90;;;;;;5031238;28;20222;-71
2023/12/07 03:40:35;;;;;;;10.77;7.45;;;0.80;99.90;;;;;;5030894;28;20238;-71
2023/12/07 03:43:04;;;;;;;12.07;7.75;;;0.80;99.90;;;;;;5030841;28;20222;-71
2023/12/07 03:45:32;;;;;;;11.27;8.13;;;0.70;99.90;;;;;;5030566;28;20210;-71
2023/12/07 03:48:00;;;;;;;10.13;7.88;;;0.70;99.90;;;;;;5031213;28;20265;-72
2023/12/07 03:50:28;;;;;;;12.10;8.32;;;0.70;99.90;;;;;;5030851;28;20213;-72
2023/12/07 03:52:57;;;;;;;12.35;8.45;;;0.70;99.90;;;;;;5030902;28;20727;-72
2023/12/07 03:55:25;;;;;;;14.68;8.68;;;0.70;99.90;;;;;;5030732;28;20329;-71
2023/12/07 03:57:53;;;;;;;15.18;9.52;;;0.70;99.90;;;;;;5030750;28;20230;-71
2023/12/07 04:00:21;;;;;;;15.50;9.82;;;0.70;99.90;;;;;;5030802;28;20742;-71
2023/12/07 04:02:49;;;;;;;14.70;9.52;;;0.60;99.90;;;;;;5033492;28;20292;-72
2023/12/07 04:05:17;;;;;;;18.88;9.50;;;0.70;99.90;;;;;;5034653;28;20210;-71
2023/12/07 04:07:45;;;;;;;15.80;8.88;;;0.70;99.90;;;;;;5034659;28;20226;-71
2023/12/07 04:10:14;;;;;;;12.32;8.73;;;0.70;99.90;;;;;;5034559;28;20225;-72
2023/12/07 04:12:42;;;;;;;15.68;8.00;;;0.60;99.90;;;;;;5034881;28;20207;-71
2023/12/07 04:15:11;;;;;;;15.02;8.60;;;0.70;99.90;;;;;;5034902;28;20211;-71
2023/12/07 04:17:38;;;;;;;15.48;8.52;;;0.60;99.90;;;;;;5034146;28;20262;-72
2023/12/07 04:20:09;;;;;;;14.40;8.90;;;0.60;99.90;;;;;;5036396;28;20209;-71
2023/12/07 04:22:37;;;;;;;13.45;7.63;;;0.60;99.90;;;;;;5034108;28;20230;-72
2023/12/07 04:25:06;;;;;;;11.75;8.07;;;0.60;99.90;;;;;;5034372;28;20626;-71
2023/12/07 04:27:35;;;;;;;11.60;7.53;;;0.60;99.90;;;;;;5034403;28;20234;-71
2023/12/07 04:30:04;;;;;;;14.05;8.27;;;0.60;99.90;;;;;;5034203;28;20297;-72
2023/12/07 04:32:31;;;;;;;12.65;7.65;;;0.60;99.90;;;;;;5034330;28;20253;-71
2023/12/07 04:34:59;;;;;;;11.98;8.13;;;0.60;99.90;;;;;;5034423;28;20211;-71
2023/12/07 04:37:27;;;;;;;17.45;9.55;;;0.60;99.90;;;;;;5033664;28;20703;-72
2023/12/07 04:39:55;;;;;;;13.32;8.70;;;0.60;99.90;;;;;;5026390;28;20202;-71
2023/12/07 04:42:23;;;;;;;14.57;9.30;;;0.50;99.90;;;;;;5034046;28;20230;-71
2023/12/07 04:44:53;;;;;;;13.73;8.10;;;0.50;99.90;;;;;;5034520;28;20203;-71
2023/12/07 04:47:21;;;;;;;13.52;8.32;;;0.50;99.90;;;;;;5034288;28;20245;-72
2023/12/07 04:49:49;;;;;;;15.63;8.10;;;0.50;99.90;;;;;;5033857;28;20633;-71
2023/12/07 04:52:18;;;;;;;11.95;7.93;;;0.50;99.90;;;;;;5034043;28;20198;-72
2023/12/07 04:54:47;;;;;;;13.65;9.05;;;0.50;99.90;;;;;;5033837;28;20238;-71
2023/12/07 04:57:14;;;;;;;13.18;8.60;;;0.50;99.90;;;;;;5033813;28;20614;-71
2023/12/07 04:59:46;;;;;;;15.13;8.65;;;0.50;99.90;;;;;;5033834;28;20214;-72
2023/12/07 05:02:16;;;;;;;16.77;7.65;;;0.50;99.90;;;;;;5033462;28;20272;-72
2023/12/07 05:04:44;;;;;;;13.65;8.20;;;0.50;99.90;;;;;;5034008;28;20272;-72
2023/12/07 05:07:14;;;;;;;14.45;8.60;;;0.40;99.90;;;;;;5033681;28;20313;-71
2023/12/07 05:09:42;;;;;;;10.88;8.10;;;0.40;99.90;;;;;;5031952;28;20217;-71
2023/12/07 05:12:10;;;;;;;13.07;7.82;;;0.40;99.90;;;;;;5033801;28;20256;-71
2023/12/07 05:14:37;;;;;;;14.38;8.43;;;0.40;99.90;;;;;;5033400;28;20558;-71
2023/12/07 05:17:05;;;;;;;11.70;8.23;;;0.40;99.90;;;;;;5033456;28;20308;-71
2023/12/07 05:19:35;;;;;;;12.73;8.52;;;0.40;99.90;;;;;;5033629;28;20199;-72
2023/12/07 05:22:02;;;;;;;13.55;8.20;;;0.40;99.90;;;;;;5033267;28;20214;-72
2023/12/07 05:24:34;;;;;;;12.35;8.50;;;0.40;99.90;;;;;;5033428;28;20771;-72
2023/12/07 05:27:03;;;;;;;10.18;8.00;;;0.40;99.90;;;;;;5028224;28;20230;-71
2023/12/07 05:29:31;;;;;;;11.18;7.65;;;0.30;99.90;;;;;;5032912;28;20203;-71
2023/12/07 05:31:59;;;;;;;11.48;8.70;;;0.30;99.90;;;;;;5033301;28;20206;-71
2023/12/07 05:34:27;;;;;;;14.90;8.23;;;0.30;99.90;;;;;;5034135;28;20305;-72
2023/12/07 05:36:56;;;;;;;16.48;9.15;;;0.30;99.90;;;;;;5032257;28;20667;-71
2023/12/07 05:39:24;;;;;;;14.32;8.65;;;0.30;99.90;;;;;;5033022;28;20652;-71
2023/12/07 05:41:53;;;;;;;12.88;8.50;;;0.30;99.90;;;;;;5032655;28;20206;-71
2023/12/07 05:44:22;;;;;;;12.52;8.50;;;0.30;99.90;;;;;;5033208;28;20222;-71
2023/12/07 05:46:50;;;;;;;14.43;10.23;;;0.30;99.90;;;;;;5032237;28;20269;-72
2023/12/07 05:49:18;;;;;;;15.70;10.82;;;0.30;99.90;;;;;;5032286;28;20207;-72
2023/12/07 05:51:46;;;;;;;17.55;10.55;;;0.30;99.90;;;;;;5032444;28;20249;-73
2023/12/07 05:54:15;;;;;;;20.42;10.07;;;0.40;99.90;;;;;;5033062;28;20199;-72
2023/12/07 05:56:43;;;;;;;15.52;9.98;;;0.40;99.90;;;;;;5032278;28;20529;-72
2023/12/07 05:59:11;;;;;;;14.75;9.90;;;0.40;99.90;;;;;;5033123;28;20207;-72
2023/12/07 06:01:39;;;;;;;18.55;12.50;;;0.40;99.90;;;;;;5032806;28;20237;-72
2023/12/07 06:04:09;;;;;;;16.80;11.05;;;0.50;99.90;;;;;;5032793;28;20233;-72
2023/12/07 06:06:37;;;;;;;18.98;10.93;;;0.50;99.90;;;;;;5031993;28;20226;-72
2023/12/07 06:09:05;;;;;;;19.70;12.80;;;0.50;99.90;;;;;;5032301;28;20203;-72
2023/12/07 06:11:34;;;;;;;17.70;12.13;;;0.50;99.90;;;;;;5033691;28;20213;-72
2023/12/07 06:14:02;;;;;;;19.67;11.52;;;0.50;99.90;;;;;;5032237;28;20286;-72
2023/12/07 06:16:30;;;;;;;18.33;10.88;;;0.50;99.90;;;;;;5032311;28;20321;-72
2023/12/07 06:18:58;;;;;;;16.38;10.48;;;0.50;99.90;;;;;;5032290;28;20293;-72
2023/12/07 06:21:29;;;;;;;16.20;11.00;;;0.50;99.90;;;;;;5032040;28;20668;-72
2023/12/07 06:23:58;;;;;;;16.98;11.55;;;0.40;99.90;;;;;;5031735;28;20276;-72
2023/12/07 06:26:26;;;;;;;16.23;10.63;;;0.50;99.90;;;;;;5031867;28;20230;-72
2023/12/07 06:28:55;;;;;;;17.15;11.02;;;0.50;99.90;;;;;;5038355;28;20293;-72
2023/12/07 06:31:23;;;;;;;14.57;10.13;;;0.50;99.90;;;;;;5024043;28;20206;-72
2023/12/07 06:33:51;;;;;;;14.93;10.32;;;0.50;99.90;;;;;;5028453;28;20241;-72
2023/12/07 06:36:20;;;;;;;15.20;10.23;;;0.50;99.90;;;;;;5031556;28;20206;-72
2023/12/07 06:38:48;;;;;;;16.65;9.98;;;0.50;99.90;;;;;;5033108;28;20455;-73
2023/12/07 06:41:16;;;;;;;17.60;9.73;;;0.40;99.90;;;;;;5034842;28;20233;-72
2023/12/07 06:43:44;;;;;;;15.32;10.27;;;0.40;99.90;;;;;;5029961;28;20301;-72
2023/12/07 06:46:16;;;;;;;16.17;10.55;;;0.50;99.90;;;;;;5029844;28;20638;-72
2023/12/07 06:48:44;;;;;;;21.02;10.82;;;0.40;99.90;;;;;;5030798;28;20217;-72
2023/12/07 06:51:12;;;;;;;15.57;10.15;;;0.40;99.90;;;;;;5031379;28;20218;-71
2023/12/07 06:53:40;;;;;;;16.63;9.93;;;0.40;99.90;;;;;;5028704;28;20556;-72
2023/12/07 06:56:09;;;;;;;18.10;10.40;;;0.50;99.90;;;;;;5031467;28;20238;-71
2023/12/07 06:58:37;;;;;;;14.23;9.35;;;0.50;99.90;;;;;;5031749;28;20210;-72
2023/12/07 07:01:05;;;;;;;14.25;10.20;;;0.50;99.90;;;;;;5030974;28;20656;-75
2023/12/07 07:03:35;;;;;;;16.80;10.68;;;0.50;99.90;;;;;;5031525;28;20289;-76
2023/12/07 07:06:03;;;;;;;16.75;10.20;;;0.50;99.90;;;;;;5031036;28;20664;-76
2023/12/07 07:08:31;;;;;;;16.38;10.50;;;0.50;99.90;;;;;;5031441;28;20205;-75
2023/12/07 07:10:59;;;;;;;14.65;10.00;;;0.60;99.90;;;;;;5030706;28;20202;-76
2023/12/07 07:13:26;;;;;;;17.23;10.50;;;0.60;99.90;;;;;;5032013;28;20297;-75
2023/12/07 07:15:55;;;;;;;15.50;10.77;;;0.60;99.90;;;;;;5031292;28;20214;-75
2023/12/07 07:18:24;;;;;;;15.32;10.10;;;0.60;99.90;;;;;;5026211;28;20581;-72
2023/12/07 07:20:53;;;;;;;18.45;10.77;;;0.50;99.90;;;;;;5031379;28;20217;-73
2023/12/07 07:23:21;;;;;;;19.33;11.15;;;0.60;99.90;;;;;;5031251;28;20211;-73
2023/12/07 07:25:49;;;;;;;17.45;11.15;;;0.50;99.90;;;;;;5030246;28;20262;-72
2023/12/07 07:28:17;;;;;;;16.92;11.15;;;0.60;99.90;;;;;;5031456;28;20495;-72
2023/12/07 07:30:45;;;;;;;15.95;11.18;;;0.60;99.90;;;;;;5031334;28;20211;-73
2023/12/07 07:33:13;;;;;;;14.80;10.18;;;0.60;99.90;;;;;;5031212;28;20231;-72
2023/12/07 07:35:41;;;;;;;19.92;10.00;;;0.60;99.90;;;;;;5027945;28;20203;-72
2023/12/07 07:38:11;;;;;;;16.98;10.55;;;0.60;99.90;;;;;;5031162;28;20222;-72
2023/12/07 07:40:39;;;;;;;14.88;10.13;;;0.60;99.90;;;;;;5030698;28;20723;-72
2023/12/07 07:43:07;;;;;;;18.48;10.25;;;0.60;99.90;;;;;;5027000;28;20566;-72
2023/12/07 07:45:35;;;;;;;14.68;10.20;;;0.60;99.90;;;;;;5030927;28;20230;-72
2023/12/07 07:48:03;;;;;;;18.33;10.68;;;0.60;99.90;;;;;;5031194;28;20544;-72
2023/12/07 07:50:32;;;;;;;15.00;10.13;;;0.70;99.90;;;;;;5031017;28;20710;-72
2023/12/07 07:53:01;;;;;;;14.32;9.73;;;0.70;99.90;;;;;;5030858;28;20214;-73
2023/12/07 07:55:30;;;;;;;18.40;10.30;;;0.70;99.90;;;;;;5030716;28;20226;-72
2023/12/07 07:57:58;;;;;;;19.27;11.02;;;0.70;99.90;;;;;;5031035;28;20233;-72
2023/12/07 08:00:28;;;;;;;18.27;10.63;;;0.70;99.90;;;;;;5030944;28;20206;-72
2023/12/07 08:02:55;;;;;;;16.50;10.05;;;0.70;99.90;;;;;;5030923;28;20261;-72
2023/12/07 08:05:23;;;;;;;16.58;10.93;;;0.70;99.90;;;;;;5030744;28;20630;-72
2023/12/07 08:07:51;;;;;;;18.27;10.25;;;0.70;99.90;;;;;;5030584;28;20227;-72
2023/12/07 08:10:20;;;;;;;17.52;10.80;;;0.70;99.90;;;;;;5030987;28;20210;-72
2023/12/07 08:12:49;;;;;;;14.48;10.38;;;0.70;99.90;;;;;;5030797;28;20623;-72
2023/12/07 08:15:17;;;;;;;13.77;9.98;;;0.70;99.90;;;;;;5030846;28;20226;-72
2023/12/07 08:17:45;;;;;;;16.85;9.88;;;0.70;99.90;;;;;;5030654;28;20725;-72
2023/12/07 08:20:14;;;;;;;14.35;9.43;;;0.70;99.90;;;;;;5030681;28;20668;-72
2023/12/07 08:22:42;;;;;;;13.93;9.52;;;0.80;99.90;;;;;;5030834;28;20288;-73
2023/12/07 08:25:11;;;;;;;14.98;9.73;;;0.80;99.90;;;;;;5030838;28;20230;-72
2023/12/07 08:27:39;;;;;;;21.33;10.35;;;0.80;99.90;;;;;;5030730;28;20603;-72
2023/12/07 08:30:10;;;;;;;20.95;12.30;;;0.80;99.90;;;;;;5022408;28;20199;-72
2023/12/07 08:32:38;;;;;;;23.52;12.57;;;0.80;99.90;;;;;;5030395;28;20337;-72
2023/12/07 08:35:07;;;;;;;23.48;13.80;;;0.80;99.90;;;;;;5030363;28;20734;-72
2023/12/07 08:37:35;;;;;;;24.17;14.80;;;0.90;99.90;;;;;;5030172;28;21051;-72
2023/12/07 08:40:03;;;;;;;22.58;13.75;;;0.90;99.90;;;;;;5030868;28;20254;-72
2023/12/07 08:42:31;;;;;;;23.23;13.50;;;0.90;99.90;;;;;;5030486;28;20210;-72
2023/12/07 08:44:59;;;;;;;21.70;13.43;;;1.00;99.90;;;;;;5031188;28;20218;-72
2023/12/07 08:47:30;;;;;;;24.27;14.02;;;1.00;99.90;;;;;;5032477;28;20223;-72
2023/12/07 08:49:58;;;;;;;24.98;13.88;;;1.10;99.90;;;;;;5034432;28;20211;-72
2023/12/07 08:52:25;;;;;;;22.60;14.02;;;1.10;99.90;;;;;;5034216;28;20202;-72
2023/12/07 08:55:09;;;;;;;37.28;18.40;;;1.20;99.90;;;;;;5033882;28;20260;-72
2023/12/07 08:57:37;;;;;;;30.23;16.35;;;1.20;99.90;;;;;;5033673;28;20227;-72
2023/12/07 09:00:07;;;;;;;25.52;15.38;;;1.30;99.90;;;;;;5033956;28;20211;-72
2023/12/07 09:02:36;;;;;;;26.80;15.77;;;1.30;99.90;;;;;;5034123;28;20202;-72
2023/12/07 09:05:14;;;;;;;25.95;15.25;;;1.30;99.90;;;;;;5034129;28;20219;-72
2023/12/07 09:07:42;;;;;;;25.27;15.40;;;1.30;99.90;;;;;;5033756;28;20510;-72
2023/12/07 09:10:10;;;;;;;28.73;14.30;;;1.30;99.90;;;;;;5025576;28;20257;-72
2023/12/07 09:12:38;;;;;;;22.75;13.13;;;1.30;99.90;;;;;;5034235;28;20695;-72
2023/12/07 09:15:07;;;;;;;25.02;14.45;;;1.30;99.90;;;;;;5033448;28;20691;-72
2023/12/07 09:17:37;;;;;;;30.10;16.58;;;1.40;99.90;;;;;;5031791;28;20266;-72
2023/12/07 09:20:07;;;;;;;30.45;14.95;;;1.30;99.90;;;;;;5028116;28;20676;-72
2023/12/07 09:22:35;;;;;;;27.30;15.50;;;1.40;99.90;;;;;;5032362;28;20618;-72
2023/12/07 09:25:06;;;;;;;32.83;14.35;;;1.40;99.90;;;;;;5030952;28;20764;-72
2023/12/07 09:27:37;;;;;;;35.88;14.82;;;1.40;99.90;;;;;;5026885;28;20759;-72
2023/12/07 09:30:06;;;;;;;28.50;14.93;;;1.30;99.90;;;;;;5030441;28;20729;-72
2023/12/07 09:32:38;;;;;;;31.05;15.73;;;1.30;99.90;;;;;;5032406;28;20203;-72
2023/12/07 09:35:08;;;;;;;38.60;15.00;;;1.30;99.90;;;;;;5033598;28;20218;-72
2023/12/07 09:37:36;;;;;;;22.75;13.98;;;1.20;99.90;;;;;;5041495;28;20610;-72
2023/12/07 09:40:05;;;;;;;55.30;15.98;;;1.20;99.90;;;;;;5026664;28;20217;-72
2023/12/07 09:42:33;;;;;;;30.77;16.27;;;1.30;99.90;;;;;;5037163;28;20242;-72
2023/12/07 09:45:04;;;;;;;30.40;16.15;;;1.30;99.90;;;;;;5032734;28;20231;-72
2023/12/07 09:47:33;;;;;;;43.22;17.15;;;1.40;99.90;;;;;;5031329;28;20227;-72
2023/12/07 09:50:07;;;;;;;26.33;16.10;;;1.40;99.90;;;;;;5031696;28;20207;-72
2023/12/07 09:52:35;;;;;;;28.77;16.33;;;1.40;99.90;;;;;;5031576;28;20206;-72
2023/12/07 09:55:04;;;;;;;31.02;16.90;;;1.40;99.90;;;;;;5032731;28;20211;-72
2023/12/07 09:57:32;;;;;;;29.70;17.10;;;1.40;99.90;;;;;;5031678;28;20313;-72
2023/12/07 10:00:01;;;;;;;34.42;17.92;;;1.50;99.90;;;;;;5031417;28;20211;-72
2023/12/07 10:02:29;;;;;;;39.30;17.83;;;1.50;99.90;;;;;;5032486;28;20297;-72
2023/12/07 10:05:07;;;;;;;39.88;18.67;;;1.60;99.90;;;;;;5032866;28;20210;-72
2023/12/07 10:07:37;;;;;;;108.15;19.55;;;1.60;99.90;;;;;;5032345;28;20226;-72
2023/12/07 10:10:06;;;;;;;38.45;17.90;;;1.60;99.90;;;;;;5032906;28;20211;-73
2023/12/07 10:12:35;;;;;;;35.05;19.50;;;1.60;99.90;;;;;;5032256;28;20211;-72
2023/12/07 10:15:06;;;;;;;31.52;17.67;;;1.70;99.90;;;;;;5032646;28;20615;-72
2023/12/07 10:17:47;;;;;;;34.90;19.02;;;1.70;99.90;;;;;;5032517;28;20318;-72
2023/12/07 10:20:18;;;;;;;32.30;18.27;;;1.70;99.90;;;;;;5024976;28;20295;-72
2023/12/07 10:22:46;;;;;;;33.33;17.77;;;1.70;99.90;;;;;;5032131;28;20210;-72
2023/12/07 10:25:14;;;;;;;36.17;18.80;;;1.70;99.90;;;;;;5027126;28;20563;-72
2023/12/07 10:27:43;;;;;;;30.02;17.25;;;1.70;99.90;;;;;;5032419;28;20234;-72
2023/12/07 10:30:12;;;;;;;33.15;18.42;;;1.80;99.90;;;;;;5032633;28;20581;-72
2023/12/07 10:32:40;;;;;;;39.47;17.92;;;1.80;99.90;;;;;;5032065;28;20286;-72
2023/12/07 10:35:09;;;;;;;35.28;19.50;;;1.80;99.90;;;;;;5032289;28;20301;-72
2023/12/07 10:37:39;;;;;;;31.70;18.67;;;1.80;99.90;;;;;;5031763;28;20219;-72
2023/12/07 10:40:07;;;;;;;35.05;18.98;;;1.90;99.90;;;;;;5030565;28;20207;-72
2023/12/07 10:42:38;;;;;;;28.67;17.48;;;1.90;99.90;;;;;;5031781;28;20206;-72
2023/12/07 10:45:07;;;;;;;45.83;20.38;;;1.90;99.90;;;;;;5031148;28;20210;-72
2023/12/07 10:47:36;;;;;;;42.58;19.90;;;1.90;99.90;;;;;;5030309;28;20369;-72
2023/12/07 10:50:10;;;;;;;36.05;19.65;;;1.90;99.90;;;;;;5030391;28;20202;-72
2023/12/07 10:52:44;;;;;;;35.58;19.83;;;2.00;99.90;;;;;;5029709;28;20211;-71
2023/12/07 10:55:16;;;;;;;45.00;21.45;;;2.00;99.90;;;;;;5029944;28;20305;-72
2023/12/07 10:57:44;;;;;;;38.75;21.67;;;1.90;99.90;;;;;;5027678;28;20230;-72
2023/12/07 11:00:13;;;;;;;39.40;21.38;;;2.00;99.90;;;;;;5031824;28;20238;-72
2023/12/07 11:02:41;;;;;;;39.10;22.27;;;2.00;99.90;;;;;;5031195;28;20734;-71
2023/12/07 11:05:09;;;;;;;39.88;21.02;;;2.00;99.90;;;;;;5031549;28;20217;-71
2023/12/07 11:07:43;;;;;;;39.58;21.05;;;2.10;99.90;;;;;;5031234;28;20232;-72
2023/12/07 11:10:13;;;;;;;34.47;19.35;;;2.10;99.90;;;;;;5031299;28;20242;-72
2023/12/07 11:12:45;;;;;;;34.10;20.13;;;2.20;99.90;;;;;;5031474;28;20214;-72
2023/12/07 11:15:13;;;;;;;35.10;19.42;;;2.20;99.90;;;;;;5031225;28;20226;-72
2023/12/07 11:17:55;;;;;;;37.15;21.52;;;2.20;99.90;;;;;;5024470;28;20226;-71
2023/12/07 11:20:32;;;;;;;39.97;20.30;;;2.20;99.90;;;;;;5029279;28;20207;-71
2023/12/07 11:23:01;;;;;;;50.90;21.92;;;2.30;99.90;;;;;;5027603;28;20294;-71
2023/12/07 11:25:29;;;;;;;41.83;20.83;;;2.30;99.90;;;;;;5036843;28;20264;-72
2023/12/07 11:28:07;;;;;;;39.60;21.83;;;2.30;99.90;;;;;;5029262;28;20238;-72
2023/12/07 11:30:36;;;;;;;40.72;20.33;;;2.40;99.90;;;;;;5029738;28;20241;-72
2023/12/07 11:33:04;;;;;;;35.70;19.63;;;2.40;99.90;;;;;;5032902;28;20213;-71
2023/12/07 11:35:32;;;;;;;42.80;21.33;;;2.40;99.90;;;;;;5030621;28;20203;-72
2023/12/07 11:38:06;;;;;;;40.10;20.63;;;2.50;99.90;;;;;;5030948;28;20673;-71
2023/12/07 11:40:36;;;;;;;41.85;19.55;;;2.50;99.90;;;;;;5032237;28;20210;-71
2023/12/07 11:43:05;;;;;;;39.47;19.95;;;2.50;99.90;;;;;;5031546;28;20265;-71
2023/12/07 11:45:43;;;;;;;39.65;20.60;;;2.60;99.90;;;;;;5030200;28;20297;-72
2023/12/07 11:48:12;;;;;;;37.08;20.23;;;2.60;99.90;;;;;;5031429;28;20261;-72
2023/12/07 11:50:58;;;;;;;38.72;20.10;;;2.60;99.90;;;;;;5033964;28;20301;-72
2023/12/07 11:53:29;;;;;;;40.08;20.63;;;2.60;99.90;;;;;;5023532;28;20212;-72
2023/12/07 11:55:57;;;;;;;42.53;20.63;;;2.60;99.90;;;;;;5039569;28;20293;-71
2023/12/07 11:58:25;;;;;;;42.13;20.63;;;2.60;99.90;;;;;;5024168;28;20629;-72
2023/12/07 12:00:54;;;;;;;36.70;19.92;;;2.60;99.90;;;;;;5031068;28;20218;-72
2023/12/07 12:03:21;;;;;;;46.45;20.05;;;2.70;99.90;;;;;;5027285;28;20225;-72
2023/12/07 12:05:49;;;;;;;40.90;20.85;;;2.70;99.90;;;;;;5029516;28;20211;-72
2023/12/07 12:08:18;;;;;;;41.72;21.42;;;2.60;99.90;;;;;;5032535;28;20265;-72
2023/12/07 12:10:48;;;;;;;42.03;20.83;;;2.60;99.90;;;;;;5041066;28;20306;-72
2023/12/07 12:13:16;;;;;;;40.47;19.42;;;2.60;99.90;;;;;;5031785;28;20585;-72
2023/12/07 12:15:44;;;;;;;39.40;19.65;;;2.70;99.90;;;;;;5033270;28;20633;-72
2023/12/07 12:18:13;;;;;;;38.13;19.42;;;2.70;99.90;;;;;;5027653;28;20254;-72
2023/12/07 12:20:42;;;;;;;37.22;19.83;;;2.70;99.90;;;;;;5034612;28;20208;-72
2023/12/07 12:23:10;;;;;;;43.35;21.55;;;2.70;99.90;;;;;;5035864;28;20209;-72
2023/12/07 12:25:38;;;;;;;42.33;20.20;;;2.70;99.90;;;;;;5034471;28;20233;-72
2023/12/07 12:28:07;;;;;;;45.38;20.63;;;2.70;99.90;;;;;;5034019;28;20237;-72
2023/12/07 12:30:35;;;;;;;49.38;21.30;;;2.70;99.90;;;;;;5034247;28;20674;-72
2023/12/07 12:33:03;;;;;;;44.33;21.17;;;2.80;99.90;;;;;;5034443;28;20214;-72
2023/12/07 12:35:32;;;;;;;43.60;21.23;;;2.80;99.90;;;;;;5034706;28;20203;-72
2023/12/07 12:38:00;;;;;;;45.20;21.85;;;2.80;99.90;;;;;;5031708;28;20276;-72
2023/12/07 12:40:28;;;;;;;44.88;21.27;;;2.80;99.90;;;;;;5035780;28;21038;-72
2023/12/07 12:42:57;;;;;;;42.95;20.67;;;2.80;99.90;;;;;;5029062;28;20214;-72
2023/12/07 12:45:26;;;;;;;50.60;21.38;;;2.80;99.90;;;;;;5036144;28;20237;-72
2023/12/07 12:47:54;;;;;;;48.13;21.38;;;2.80;99.90;;;;;;5033874;28;20262;-72
2023/12/07 12:50:40;;;;;;;40.63;19.98;;;2.90;99.90;;;;;;5034026;28;20202;-72